Time;durP1;ratioP1;P1;durP2;ratioP2;P2;SDS_P1;SDS_P2;PMS_P1;PMS_P2;Temp;Humidity;BMP_temperature;BMP_pressure;BME280_temperature;BME280_humidity;BME280_pressure;Samples;Min_cycle;Max_cycle;Signal;HPM_P1;HPM_P2
2020/12/11 00:00:20;;;;;;;0.85;0.05;;;12.20;91.60;;;;;;5034056;28;20044;-72
2020/12/11 00:02:46;;;;;;;2.47;0.05;;;12.10;91.40;;;;;;5033870;28;20041;-72
2020/12/11 00:05:12;;;;;;;1.15;0.03;;;12.60;91.50;;;;;;5033904;28;20147;-73
2020/12/11 00:07:40;;;;;;;0.32;0.00;;;12.70;91.50;;;;;;5034187;28;20041;-72
2020/12/11 00:10:10;;;;;;;0.93;0.00;;;12.50;91.50;;;;;;5033889;28;20124;-72
2020/12/11 00:12:37;;;;;;;0.32;0.00;;;12.60;91.60;;;;;;5033740;28;20071;-72
2020/12/11 00:15:05;;;;;;;1.95;0.03;;;12.20;91.50;;;;;;5034079;28;20593;-72
2020/12/11 00:17:31;;;;;;;2.15;0.10;;;12.50;91.60;;;;;;5049497;28;20060;-71
2020/12/11 00:19:57;;;;;;;0.88;0.00;;;12.50;91.50;;;;;;5035788;28;20044;-72
2020/12/11 00:22:23;;;;;;;0.30;0.10;;;12.30;91.50;;;;;;5053603;28;20033;-72
2020/12/11 00:24:53;;;;;;;3.30;0.25;;;12.50;91.60;;;;;;5053354;28;20049;-72
2020/12/11 00:27:19;;;;;;;1.73;0.08;;;12.40;91.70;;;;;;5056998;28;20068;-72
2020/12/11 00:29:45;;;;;;;0.60;0.00;;;12.60;91.70;;;;;;5057426;28;20407;-71
2020/12/11 00:32:11;;;;;;;1.48;0.00;;;12.80;91.60;;;;;;5057690;28;20638;-72
2020/12/11 00:34:37;;;;;;;0.98;0.00;;;12.80;91.60;;;;;;5057180;28;20040;-72
2020/12/11 00:37:04;;;;;;;0.30;0.00;;;12.70;91.60;;;;;;5057343;28;20041;-72
2020/12/11 00:39:30;;;;;;;1.13;0.00;;;12.90;91.70;;;;;;5057540;28;20407;-72
2020/12/11 00:41:56;;;;;;;1.27;0.00;;;12.90;91.60;;;;;;5057163;28;20036;-72
2020/12/11 00:44:22;;;;;;;0.70;0.00;;;12.50;91.60;;;;;;5057227;28;20049;-72
2020/12/11 00:46:48;;;;;;;0.52;0.00;;;13.10;91.70;;;;;;5057209;28;20068;-72
2020/12/11 00:49:14;;;;;;;0.85;0.00;;;12.70;91.70;;;;;;5057190;28;20068;-72
2020/12/11 00:51:40;;;;;;;1.05;0.00;;;12.90;91.80;;;;;;5057409;28;20118;-72
2020/12/11 00:54:06;;;;;;;2.38;0.08;;;12.80;91.70;;;;;;5057160;28;20053;-72
2020/12/11 00:56:32;;;;;;;1.33;0.05;;;12.90;91.90;;;;;;5057189;28;20041;-73
2020/12/11 00:58:58;;;;;;;2.35;0.05;;;13.00;91.80;;;;;;5056892;28;20052;-72
2020/12/11 01:01:23;;;;;;;4.75;0.05;;;12.80;91.80;;;;;;5057105;28;20508;-72
2020/12/11 01:03:49;;;;;;;4.15;0.10;;;13.20;91.70;;;;;;5056835;28;20124;-72
2020/12/11 01:06:15;;;;;;;4.97;0.20;;;13.00;91.70;;;;;;5056970;28;20567;-72
2020/12/11 01:08:41;;;;;;;6.22;0.25;;;13.00;91.70;;;;;;5057037;28;20040;-72
2020/12/11 01:11:07;;;;;;;9.80;0.20;;;13.30;92.10;;;;;;5056667;28;20124;-72
2020/12/11 01:13:33;;;;;;;13.13;0.68;;;13.30;92.00;;;;;;5056755;28;20131;-72
2020/12/11 01:15:58;;;;;;;10.10;0.47;;;12.60;91.80;;;;;;5056375;28;20191;-72
2020/12/11 01:18:25;;;;;;;13.52;0.40;;;13.00;92.30;;;;;;5056761;28;20551;-72
2020/12/11 01:20:50;;;;;;;9.15;0.40;;;12.90;92.00;;;;;;5056543;28;20500;-72
2020/12/11 01:23:16;;;;;;;9.98;0.35;;;13.10;92.00;;;;;;5056561;28;20041;-72
2020/12/11 01:25:42;;;;;;;12.65;0.40;;;13.00;92.10;;;;;;5056532;28;20037;-72
2020/12/11 01:28:08;;;;;;;12.05;0.45;;;12.90;92.10;;;;;;5056345;28;20512;-73
2020/12/11 01:30:34;;;;;;;11.18;0.63;;;13.30;92.20;;;;;;5056524;28;20124;-72
2020/12/11 01:33:00;;;;;;;8.50;0.90;;;12.80;92.10;;;;;;5056449;28;20400;-73
2020/12/11 01:35:25;;;;;;;11.23;0.85;;;13.10;92.20;;;;;;5056279;28;20514;-73
2020/12/11 01:37:51;;;;;;;13.65;2.03;;;13.50;92.30;;;;;;5055858;28;20535;-73
2020/12/11 01:40:17;;;;;;;9.38;1.60;;;13.40;92.30;;;;;;5056458;28;20067;-73
2020/12/11 01:42:43;;;;;;;9.82;1.20;;;13.40;92.30;;;;;;5056196;28;20399;-72
2020/12/11 01:45:09;;;;;;;9.43;1.02;;;12.90;92.20;;;;;;5056048;28;20063;-73
2020/12/11 01:47:41;;;;;;;8.48;0.70;;;13.30;92.40;;;;;;5056365;28;20495;-73
2020/12/11 01:50:09;;;;;;;11.98;0.88;;;13.20;92.40;;;;;;5056468;28;20120;-73
2020/12/11 01:52:48;;;;;;;8.88;0.65;;;13.10;92.50;;;;;;5056459;28;20076;-73
2020/12/11 01:55:14;;;;;;;10.60;1.00;;;13.40;92.10;;;;;;5055906;28;20072;-72
2020/12/11 01:57:48;;;;;;;4.75;0.50;;;13.20;92.50;;;;;;5055575;28;20405;-73
2020/12/11 02:00:19;;;;;;;7.30;0.30;;;13.40;92.60;;;;;;5056103;28;20154;-72
2020/12/11 02:02:46;;;;;;;9.27;0.70;;;13.20;92.60;;;;;;5056505;28;20037;-72
2020/12/11 02:05:12;;;;;;;5.65;0.32;;;13.40;92.60;;;;;;5056015;28;20129;-73
2020/12/11 02:07:39;;;;;;;6.38;0.98;;;13.50;92.70;;;;;;5055902;28;20465;-73
2020/12/11 02:10:09;;;;;;;9.45;1.55;;;13.30;92.70;;;;;;5055995;28;20060;-73
2020/12/11 02:12:35;;;;;;;7.80;0.98;;;12.70;92.60;;;;;;5055579;28;20076;-73
2020/12/11 02:15:01;;;;;;;9.13;1.70;;;12.90;92.70;;;;;;5037831;28;20043;-72
2020/12/11 02:17:27;;;;;;;7.53;1.50;;;13.00;92.70;;;;;;5055476;28;20144;-73
2020/12/11 02:19:56;;;;;;;9.02;1.10;;;13.40;92.90;;;;;;5055595;28;20045;-73
2020/12/11 02:22:22;;;;;;;8.70;1.00;;;13.10;92.90;;;;;;5037882;28;20484;-73
2020/12/11 02:24:52;;;;;;;5.60;0.32;;;13.20;92.90;;;;;;5055414;28;20128;-73
2020/12/11 02:27:18;;;;;;;7.65;0.60;;;13.50;93.00;;;;;;5053786;28;20545;-73
2020/12/11 02:29:44;;;;;;;5.03;0.57;;;13.40;93.00;;;;;;5055695;28;20040;-72
2020/12/11 02:32:13;;;;;;;9.30;0.55;;;13.30;92.90;;;;;;5055450;28;20068;-73
2020/12/11 02:34:42;;;;;;;7.05;0.47;;;13.20;92.90;;;;;;5055037;28;20132;-73
2020/12/11 02:37:12;;;;;;;5.03;0.43;;;13.10;92.90;;;;;;5054964;28;20396;-73
2020/12/11 02:39:39;;;;;;;5.93;0.30;;;13.20;92.90;;;;;;5055302;28;20495;-73
2020/12/11 02:42:06;;;;;;;7.22;0.50;;;13.20;93.00;;;;;;5055300;28;20045;-72
2020/12/11 02:44:32;;;;;;;7.22;0.50;;;13.10;92.80;;;;;;5055221;28;20109;-73
2020/12/11 02:46:58;;;;;;;3.75;0.40;;;13.00;92.70;;;;;;5055474;28;20041;-73
2020/12/11 02:49:24;;;;;;;6.65;0.40;;;13.20;92.70;;;;;;5049499;22;20058;-70
2020/12/11 02:51:50;;;;;;;5.50;0.38;;;13.20;92.70;;;;;;5015084;28;20041;-69
2020/12/11 02:54:15;;;;;;;5.15;0.30;;;13.30;92.80;;;;;;5001575;28;20049;-69
2020/12/11 02:56:41;;;;;;;3.28;0.22;;;13.50;92.90;;;;;;4995343;28;20041;-70
2020/12/11 02:59:07;;;;;;;4.28;0.30;;;13.20;92.90;;;;;;5013651;28;20038;-70
2020/12/11 03:01:33;;;;;;;6.57;0.80;;;13.10;92.80;;;;;;5015040;28;20041;-70
2020/12/11 03:03:59;;;;;;;2.90;0.47;;;13.30;93.00;;;;;;5015277;28;20430;-70
2020/12/11 03:06:32;;;;;;;4.32;0.40;;;13.10;92.90;;;;;;5033683;28;20033;-70
2020/12/11 03:09:01;;;;;;;5.32;0.20;;;12.60;92.70;;;;;;5035068;28;20044;-69
2020/12/11 03:11:27;;;;;;;6.78;0.32;;;12.70;93.00;;;;;;5034564;28;20030;-70
2020/12/11 03:13:53;;;;;;;2.08;0.10;;;12.80;92.90;;;;;;5034461;28;20049;-69
2020/12/11 03:16:19;;;;;;;4.93;0.35;;;12.80;93.30;;;;;;5034950;28;20025;-70
2020/12/11 03:18:46;;;;;;;2.90;0.22;;;12.90;93.20;;;;;;5034529;28;20064;-70
2020/12/11 03:21:12;;;;;;;2.70;0.10;;;12.80;93.20;;;;;;5034368;28;20033;-69
2020/12/11 03:23:38;;;;;;;2.35;0.10;;;12.80;93.20;;;;;;5034316;28;20399;-69
2020/12/11 03:26:05;;;;;;;3.47;0.20;;;12.90;93.30;;;;;;5032067;28;20032;-69
2020/12/11 03:28:31;;;;;;;3.33;0.20;;;12.80;93.20;;;;;;5014660;28;20042;-69
2020/12/11 03:30:58;;;;;;;3.80;0.40;;;13.30;93.30;;;;;;5014531;28;20069;-70
2020/12/11 03:33:25;;;;;;;4.47;0.40;;;12.90;93.40;;;;;;5014615;28;20060;-69
2020/12/11 03:35:51;;;;;;;5.78;0.30;;;13.00;93.30;;;;;;5014724;28;20081;-69
2020/12/11 03:38:17;;;;;;;4.93;0.20;;;13.10;93.20;;;;;;5014573;28;20038;-69
2020/12/11 03:40:43;;;;;;;6.38;0.20;;;13.10;92.90;;;;;;5014386;28;20563;-70
2020/12/11 03:43:09;;;;;;;4.38;0.17;;;12.60;92.90;;;;;;5014525;28;20544;-70
2020/12/11 03:45:35;;;;;;;3.47;0.20;;;12.70;92.80;;;;;;5014557;28;20453;-69
2020/12/11 03:48:01;;;;;;;4.47;0.20;;;12.90;93.00;;;;;;5014882;28;20100;-69
2020/12/11 03:50:27;;;;;;;7.60;0.20;;;12.60;93.00;;;;;;5014519;28;20061;-70
2020/12/11 03:52:53;;;;;;;2.65;0.15;;;13.10;93.10;;;;;;5014396;28;20034;-70
2020/12/11 03:55:18;;;;;;;5.57;0.20;;;12.90;93.10;;;;;;5014356;28;20053;-70
2020/12/11 03:57:44;;;;;;;5.45;0.28;;;12.90;93.10;;;;;;5014537;28;20030;-69
2020/12/11 04:00:10;;;;;;;5.57;0.30;;;12.90;93.10;;;;;;5013992;28;20034;-69
2020/12/11 04:02:36;;;;;;;6.25;0.20;;;12.70;93.10;;;;;;5014017;28;20026;-69
2020/12/11 04:05:06;;;;;;;7.22;0.22;;;13.00;93.20;;;;;;5014007;28;20041;-69
2020/12/11 04:07:33;;;;;;;3.97;0.28;;;12.90;93.30;;;;;;5014516;28;20030;-69
2020/12/11 04:09:59;;;;;;;3.60;0.20;;;12.80;93.30;;;;;;5014405;28;20038;-69
2020/12/11 04:12:25;;;;;;;5.22;0.30;;;13.40;93.30;;;;;;5014014;28;20446;-69
2020/12/11 04:14:51;;;;;;;7.28;0.40;;;13.00;93.40;;;;;;5013925;28;20464;-70
2020/12/11 04:17:17;;;;;;;13.02;0.75;;;13.10;93.50;;;;;;5013957;28;20424;-69
2020/12/11 04:19:43;;;;;;;7.50;0.52;;;13.00;93.50;;;;;;5014250;28;20045;-69
2020/12/11 04:22:09;;;;;;;8.73;0.40;;;13.20;93.50;;;;;;5014045;28;20512;-69
2020/12/11 04:24:35;;;;;;;12.20;0.57;;;13.30;93.60;;;;;;5014065;28;20038;-69
2020/12/11 04:27:01;;;;;;;12.27;0.73;;;12.80;93.40;;;;;;5013959;28;20034;-69
2020/12/11 04:29:27;;;;;;;12.88;0.70;;;13.50;93.70;;;;;;5032149;28;20044;-69
2020/12/11 04:31:58;;;;;;;15.85;0.70;;;13.20;93.60;;;;;;5033815;28;20354;-69
2020/12/11 04:34:24;;;;;;;16.30;0.68;;;13.40;93.80;;;;;;5033472;28;20045;-69
2020/12/11 04:36:52;;;;;;;14.60;1.00;;;13.10;93.60;;;;;;5033904;28;20496;-70
2020/12/11 04:39:18;;;;;;;12.55;1.05;;;13.20;93.50;;;;;;5033496;28;20500;-69
2020/12/11 04:41:45;;;;;;;17.40;1.15;;;13.10;93.40;;;;;;5033699;28;20526;-69
2020/12/11 04:44:11;;;;;;;17.02;0.90;;;13.40;93.60;;;;;;5033537;28;20204;-70
2020/12/11 04:46:38;;;;;;;19.80;1.45;;;12.90;93.30;;;;;;5033401;28;20641;-70
2020/12/11 04:49:05;;;;;;;19.50;1.40;;;13.40;93.50;;;;;;5033587;28;20057;-70
2020/12/11 04:51:33;;;;;;;19.85;1.33;;;13.20;93.50;;;;;;5033872;28;20029;-69
2020/12/11 04:54:00;;;;;;;21.80;1.45;;;13.10;93.50;;;;;;5033869;28;20072;-69
2020/12/11 04:56:26;;;;;;;19.90;1.52;;;12.70;93.60;;;;;;5033779;28;20044;-70
2020/12/11 04:58:53;;;;;;;22.50;1.65;;;13.10;93.30;;;;;;5033640;28;20034;-69
2020/12/11 05:01:29;;;;;;;31.00;1.70;;;12.60;93.30;;;;;;5033856;28;20034;-70
2020/12/11 05:03:55;;;;;;;;;;;12.80;93.50;;;;;;5034217;28;20473;-70
2020/12/11 05:06:22;;;;;;;21.80;1.45;;;12.50;93.50;;;;;;5033727;28;19939;-70
2020/12/11 05:08:48;;;;;;;26.15;1.73;;;12.40;93.40;;;;;;5033465;28;20041;-69
2020/12/11 05:11:27;;;;;;;18.50;1.42;;;13.10;93.60;;;;;;5033455;28;20068;-70
2020/12/11 05:13:53;;;;;;;23.67;1.58;;;12.90;93.70;;;;;;5035923;28;20559;-69
2020/12/11 05:16:21;;;;;;;31.85;1.85;;;13.20;93.50;;;;;;5037032;28;20033;-70
2020/12/11 05:19:00;;;;;;;20.42;1.60;;;13.40;93.50;;;;;;5037274;28;20091;-69
2020/12/11 05:21:26;;;;;;;23.05;1.60;;;13.00;93.30;;;;;;5037187;28;20036;-69
2020/12/11 05:24:04;;;;;;;19.40;1.35;;;13.20;93.30;;;;;;5036984;28;20128;-69
2020/12/11 05:26:35;;;;;;;22.02;1.85;;;13.00;93.60;;;;;;5037028;28;20030;-69
2020/12/11 05:29:02;;;;;;;25.13;1.90;;;13.20;93.10;;;;;;5037241;28;20038;-69
2020/12/11 05:31:28;;;;;;;28.02;1.88;;;13.10;93.50;;;;;;5037120;28;20037;-69
2020/12/11 05:34:06;;;;;;;23.17;1.67;;;13.20;93.50;;;;;;5036817;28;20374;-69
2020/12/11 05:36:48;;;;;;;25.33;2.05;;;13.30;93.50;;;;;;5022843;28;20069;-69
2020/12/11 05:39:19;;;;;;;32.13;1.90;;;13.00;93.40;;;;;;5017314;28;20073;-70
2020/12/11 05:41:45;;;;;;;31.77;2.20;;;13.10;93.50;;;;;;5017087;28;20084;-70
2020/12/11 05:44:31;;;;;;;29.00;1.92;;;12.90;93.30;;;;;;5014351;28;20049;-70
2020/12/11 05:46:59;;;;;;;27.00;2.10;;;13.30;93.40;;;;;;5010097;28;20041;-70
2020/12/11 05:49:30;;;;;;;23.52;1.65;;;12.90;93.40;;;;;;5010134;28;20485;-70
2020/12/11 05:52:14;;;;;;;26.77;2.30;;;13.30;93.60;;;;;;5016502;28;20037;-70
2020/12/11 05:54:45;;;;;;;23.00;1.92;;;13.20;93.20;;;;;;5015508;28;20056;-70
2020/12/11 05:57:13;;;;;;;33.17;2.40;;;13.20;93.60;;;;;;5015733;28;20037;-70
2020/12/11 05:59:40;;;;;;;26.95;2.08;;;13.50;93.40;;;;;;5016437;28;20037;-70
2020/12/11 06:02:06;;;;;;;32.53;2.30;;;13.50;93.50;;;;;;5012584;28;20042;-70
2020/12/11 06:04:32;;;;;;;29.85;2.72;;;13.40;93.60;;;;;;4994834;28;20038;-70
2020/12/11 06:06:59;;;;;;;29.73;2.95;;;13.40;93.30;;;;;;4995613;28;20084;-70
2020/12/11 06:09:33;;;;;;;30.85;2.22;;;13.50;93.50;;;;;;4995138;28;20034;-69
2020/12/11 06:12:00;;;;;;;22.63;2.42;;;13.20;93.50;;;;;;5010803;28;20115;-69
2020/12/11 06:14:42;;;;;;;33.38;5.60;;;13.10;93.60;;;;;;5010749;28;20101;-70
2020/12/11 06:17:09;;;;;;;17.67;3.55;;;13.40;93.80;;;;;;5012783;28;20061;-69
2020/12/11 06:19:40;;;;;;;23.08;3.50;;;13.80;93.90;;;;;;5014054;28;20064;-69
2020/12/11 06:22:08;;;;;;;16.00;2.65;;;13.00;93.80;;;;;;5014053;28;20040;-70
2020/12/11 06:24:35;;;;;;;19.77;2.25;;;13.40;93.70;;;;;;5000448;28;20046;-69
2020/12/11 06:27:03;;;;;;;17.58;2.17;;;13.30;93.70;;;;;;5002124;28;20045;-69
2020/12/11 06:29:34;;;;;;;14.40;2.60;;;13.00;93.50;;;;;;5001730;28;20501;-69
2020/12/11 06:32:00;;;;;;;15.43;3.22;;;12.90;93.60;;;;;;4993665;28;20041;-70
2020/12/11 06:34:26;;;;;;;19.65;2.78;;;13.10;93.60;;;;;;5006623;28;20087;-70
2020/12/11 06:36:54;;;;;;;20.38;3.17;;;13.00;93.50;;;;;;5013759;28;20036;-70
2020/12/11 06:39:49;;;;;;;18.48;2.90;;;13.20;93.80;;;;;;5006266;28;20092;-70
2020/12/11 06:42:39;;;;;;;16.85;2.13;;;13.30;93.90;;;;;;4986400;28;20256;-70
2020/12/11 06:45:19;;;;;;;18.42;3.20;;;12.70;93.50;;;;;;5014885;28;20128;-69
2020/12/11 06:47:58;;;;;;;17.98;3.40;;;13.10;93.50;;;;;;5015545;28;20077;-69
2020/12/11 06:50:32;;;;;;;16.05;3.67;;;13.20;93.50;;;;;;5015496;28;20042;-70
2020/12/11 06:52:59;;;;;;;22.42;3.63;;;12.80;93.90;;;;;;5015678;28;20041;-70
2020/12/11 06:55:50;;;;;;;16.90;2.80;;;13.50;94.10;;;;;;5015156;28;20046;-70
2020/12/11 06:58:20;;;;;;;16.27;2.72;;;13.10;93.80;;;;;;5015471;28;20044;-70
2020/12/11 07:00:57;;;;;;;21.17;2.90;;;12.90;94.00;;;;;;5015591;28;20041;-71
2020/12/11 07:03:25;;;;;;;23.90;2.78;;;13.10;94.20;;;;;;5015596;28;20044;-70
2020/12/11 07:06:05;;;;;;;19.63;2.10;;;13.00;94.10;;;;;;5015235;28;20056;-70
2020/12/11 07:08:31;;;;;;;18.90;2.10;;;12.70;94.30;;;;;;5015296;28;20034;-71
2020/12/11 07:11:08;;;;;;;13.38;1.88;;;12.80;94.10;;;;;;5015375;28;20033;-70
2020/12/11 07:13:36;;;;;;;19.48;2.08;;;12.70;94.10;;;;;;5015326;28;20505;-70
2020/12/11 07:16:03;;;;;;;22.77;2.63;;;13.20;94.30;;;;;;5015394;28;20156;-70
2020/12/11 07:18:29;;;;;;;18.33;2.47;;;13.20;94.30;;;;;;5015161;28;20493;-70
2020/12/11 07:20:57;;;;;;;28.38;3.00;;;13.00;93.80;;;;;;5014698;28;20030;-71
2020/12/11 07:23:24;;;;;;;21.80;2.92;;;13.00;94.00;;;;;;5015045;28;20034;-71
2020/12/11 07:25:51;;;;;;;24.60;2.33;;;12.70;93.70;;;;;;5015115;28;20029;-71
2020/12/11 07:28:18;;;;;;;25.75;2.75;;;13.30;94.00;;;;;;5014250;28;20069;-71
2020/12/11 07:30:47;;;;;;;29.20;3.58;;;13.30;93.80;;;;;;5014923;28;20057;-71
2020/12/11 07:33:13;;;;;;;33.67;3.80;;;12.90;93.90;;;;;;5014805;28;20100;-72
2020/12/11 07:35:50;;;;;;;28.85;3.17;;;13.20;93.70;;;;;;5011891;28;20038;-71
2020/12/11 07:38:18;;;;;;;29.40;3.47;;;13.20;94.60;;;;;;5013809;28;20034;-72
2020/12/11 07:40:52;;;;;;;30.17;4.63;;;12.80;94.10;;;;;;5014359;28;20038;-71
2020/12/11 07:43:19;;;;;;;39.75;4.00;;;12.70;94.20;;;;;;5006322;28;20034;-71
2020/12/11 07:45:46;;;;;;;32.78;3.67;;;13.00;94.40;;;;;;5014223;28;20121;-71
2020/12/11 07:48:13;;;;;;;39.28;4.03;;;13.10;94.30;;;;;;5013534;28;20033;-72
2020/12/11 07:50:40;;;;;;;40.92;4.53;;;13.10;94.50;;;;;;5014000;28;20491;-72
2020/12/11 07:53:10;;;;;;;35.85;4.35;;;12.90;94.30;;;;;;5012836;28;20049;-71
2020/12/11 07:55:36;;;;;;;35.97;3.67;;;13.40;94.40;;;;;;5014026;28;20132;-71
2020/12/11 07:58:03;;;;;;;42.28;3.88;;;13.10;94.40;;;;;;5013103;28;20041;-71
2020/12/11 08:00:38;;;;;;;35.97;3.58;;;13.00;94.30;;;;;;5013413;28;20058;-71
2020/12/11 08:03:08;;;;;;;27.08;3.60;;;13.30;94.50;;;;;;5012780;28;20512;-71
2020/12/11 08:05:36;;;;;;;37.88;4.05;;;13.50;94.40;;;;;;5011958;28;20044;-72
2020/12/11 08:08:02;;;;;;;35.00;3.55;;;13.30;94.30;;;;;;5013279;28;20037;-72
2020/12/11 08:10:37;;;;;;;38.85;3.17;;;13.00;94.40;;;;;;5014002;28;20030;-71
2020/12/11 08:13:12;;;;;;;33.33;3.78;;;13.40;94.60;;;;;;5014034;28;20041;-71
2020/12/11 08:15:39;;;;;;;;;;;13.20;94.60;;;;;;5012663;28;20073;-71
2020/12/11 08:18:25;;;;;;;31.95;3.25;;;13.40;94.60;;;;;;5012160;28;19936;-71
2020/12/11 08:21:01;;;;;;;39.85;3.88;;;13.40;94.50;;;;;;5012289;28;20265;-71
2020/12/11 08:23:40;;;;;;;39.47;4.22;;;13.30;94.50;;;;;;5012522;28;20116;-70
2020/12/11 08:26:16;;;;;;;35.25;4.03;;;13.20;94.50;;;;;;5012783;28;20069;-71
2020/12/11 08:28:43;;;;;;;32.80;4.43;;;12.90;94.40;;;;;;5012091;28;20042;-71
2020/12/11 08:31:23;;;;;;;33.03;4.32;;;13.50;93.90;;;;;;5012780;28;20497;-71
2020/12/11 08:34:00;;;;;;;28.15;4.20;;;13.50;94.20;;;;;;5013709;28;20042;-70
2020/12/11 08:36:27;;;;;;;24.75;3.50;;;13.10;94.50;;;;;;5013650;28;20063;-70
2020/12/11 08:39:09;;;;;;;24.13;2.88;;;13.10;94.50;;;;;;5013803;28;20464;-70
2020/12/11 08:41:40;;;;;;;21.63;3.30;;;13.30;94.80;;;;;;5013282;28;20061;-70
2020/12/11 08:44:15;;;;;;;19.30;3.00;;;13.50;94.40;;;;;;5013866;28;20068;-70
2020/12/11 08:49:53;;;;;;;19.60;2.55;;;13.00;94.40;;;;;;5018063;28;20497;-71
2020/12/11 08:52:18;;;;;;;24.77;2.67;;;13.00;94.50;;;;;;5018124;28;20041;-70
2020/12/11 08:54:46;;;;;;;18.75;2.28;;;13.40;94.20;;;;;;5017716;28;20045;-70
2020/12/11 08:57:13;;;;;;;24.58;2.60;;;13.50;94.40;;;;;;5017073;28;20034;-69
2020/12/11 08:59:39;;;;;;;22.98;2.28;;;13.40;94.30;;;;;;5017442;28;20038;-70
2020/12/11 09:02:05;;;;;;;22.25;2.33;;;13.60;94.40;;;;;;5017705;28;20040;-69
2020/12/11 09:04:31;;;;;;;21.98;2.08;;;13.50;94.30;;;;;;5017751;28;20396;-69
2020/12/11 09:06:57;;;;;;;19.75;2.10;;;13.60;94.20;;;;;;5017772;28;20030;-69
2020/12/11 09:09:23;;;;;;;18.95;2.03;;;13.10;94.00;;;;;;5017505;28;20563;-70
2020/12/11 09:11:48;;;;;;;20.33;2.20;;;13.30;94.00;;;;;;5017527;28;20037;-69
2020/12/11 09:14:14;;;;;;;19.20;2.15;;;13.30;93.90;;;;;;5017140;28;20524;-69
2020/12/11 09:16:41;;;;;;;15.40;1.95;;;13.70;93.70;;;;;;5017346;28;20034;-70
2020/12/11 09:19:06;;;;;;;18.20;2.63;;;13.70;93.60;;;;;;5017483;28;20057;-69
2020/12/11 09:21:32;;;;;;;15.32;2.05;;;13.40;93.50;;;;;;5017024;28;20072;-69
2020/12/11 09:23:58;;;;;;;18.45;1.90;;;13.80;93.50;;;;;;5017317;28;20045;-70
2020/12/11 09:26:26;;;;;;;16.38;2.08;;;13.60;93.50;;;;;;5017194;28;20026;-69
2020/12/11 09:29:01;;;;;;;16.85;2.35;;;13.90;93.30;;;;;;5016967;28;20041;-70
2020/12/11 09:31:27;;;;;;;;;;;13.50;93.40;;;;;;5000846;28;20039;-69
2020/12/11 09:33:56;;;;;;;15.18;1.88;;;14.10;93.60;;;;;;4997085;28;19956;-69
2020/12/11 09:36:24;;;;;;;14.50;2.10;;;14.00;93.20;;;;;;4997564;28;20069;-69
2020/12/11 09:38:50;;;;;;;15.43;2.72;;;13.80;93.10;;;;;;4997337;28;20041;-70
2020/12/11 09:41:18;;;;;;;21.20;3.42;;;14.00;93.30;;;;;;4996729;28;20065;-69
2020/12/11 09:46:42;;;;;;;19.42;3.17;;;13.70;92.80;;;;;;4996884;28;20035;-69
2020/12/11 09:56:57;;;;;;;15.68;2.92;;;14.50;92.40;;;;;;4991201;28;20050;-69
2020/12/11 09:59:35;;;;;;;24.85;3.80;;;14.40;92.30;;;;;;4996087;28;20575;-69
2020/12/11 10:04:36;;;;;;;22.65;3.20;;;14.40;91.70;;;;;;4996665;28;20043;-71
2020/12/11 10:07:02;;;;;;;22.40;3.08;;;14.60;91.80;;;;;;4996001;28;20042;-71
2020/12/11 10:09:28;;;;;;;18.90;3.33;;;14.40;91.70;;;;;;4996464;28;20030;-71
2020/12/11 10:11:54;;;;;;;16.67;2.92;;;15.10;92.00;;;;;;4996652;28;20042;-71
2020/12/11 10:16:52;;;;;;;16.70;3.40;;;14.70;91.50;;;;;;4996368;28;20038;-71
2020/12/11 10:19:20;;;;;;;15.38;2.60;;;15.40;92.20;;;;;;4996532;28;20030;-70
2020/12/11 10:21:48;;;;;;;18.20;2.90;;;15.10;91.80;;;;;;4996345;28;20038;-72
2020/12/11 10:24:14;;;;;;;18.40;2.85;;;15.70;92.40;;;;;;4996449;28;20070;-72
2020/12/11 10:26:41;;;;;;;20.08;3.00;;;14.90;91.60;;;;;;4995916;28;20034;-71
2020/12/11 10:29:07;;;;;;;19.00;3.10;;;14.80;91.50;;;;;;4996169;28;20038;-72
2020/12/11 10:31:33;;;;;;;20.00;3.35;;;14.70;91.70;;;;;;4996101;28;20461;-71
2020/12/11 10:33:59;;;;;;;16.85;2.85;;;14.50;91.50;;;;;;4995884;28;20072;-72
2020/12/11 10:36:29;;;;;;;20.63;2.40;;;14.40;91.80;;;;;;4996255;28;20046;-71
2020/12/11 10:38:56;;;;;;;24.23;3.20;;;14.40;92.20;;;;;;4995675;28;20042;-71
2020/12/11 10:41:22;;;;;;;18.42;3.08;;;14.30;92.00;;;;;;4995529;28;20636;-71
2020/12/11 10:43:49;;;;;;;25.50;3.72;;;14.20;92.00;;;;;;4995668;28;20397;-72
2020/12/11 10:46:15;;;;;;;19.23;2.80;;;14.00;91.90;;;;;;4995895;28;20125;-72
2020/12/11 10:48:40;;;;;;;19.48;3.22;;;13.90;92.20;;;;;;4995598;28;20550;-72
2020/12/11 10:51:12;;;;;;;19.92;3.33;;;13.70;92.20;;;;;;4996006;28;20031;-72
2020/12/11 10:53:38;;;;;;;14.00;3.03;;;13.70;91.90;;;;;;4995775;28;20125;-72
2020/12/11 10:56:05;;;;;;;16.23;2.08;;;13.80;92.50;;;;;;4994999;28;20509;-72
2020/12/11 10:58:31;;;;;;;13.20;1.48;;;13.70;92.60;;;;;;4995864;28;20041;-71
2020/12/11 11:00:57;;;;;;;14.98;1.88;;;13.90;92.70;;;;;;4995740;28;20393;-71
2020/12/11 11:03:27;;;;;;;16.65;1.63;;;14.00;92.70;;;;;;4995689;28;20038;-71
2020/12/11 11:05:54;;;;;;;17.83;1.80;;;14.10;92.50;;;;;;4994629;28;20049;-71
2020/12/11 11:08:21;;;;;;;17.17;2.38;;;14.00;92.70;;;;;;4995404;28;20042;-71
2020/12/11 11:10:49;;;;;;;33.47;8.95;;;14.10;92.40;;;;;;4994813;28;20033;-71
2020/12/11 11:13:27;;;;;;;20.23;3.03;;;13.90;92.50;;;;;;4995366;28;20089;-71
2020/12/11 11:15:56;;;;;;;9.98;1.80;;;13.90;92.60;;;;;;4995702;28;20197;-71
2020/12/11 11:27:06;;;;;;;29.75;9.13;;;13.80;91.70;;;;;;4995586;28;20128;-71
2020/12/11 11:28:53;;;;;;;26.67;9.05;;;14.40;91.70;;;;;;4985799;28;20482;-71
2020/12/11 11:31:18;;;;;;;22.25;5.43;;;14.00;91.80;;;;;;4995344;28;20035;-71
2020/12/11 11:33:44;;;;;;;18.13;5.30;;;13.80;91.60;;;;;;4995280;28;20034;-71
2020/12/11 11:36:11;;;;;;;22.73;6.97;;;14.40;91.60;;;;;;4995423;28;20497;-71
2020/12/11 11:38:37;;;;;;;22.27;6.93;;;14.00;91.60;;;;;;4995516;28;20038;-71
2020/12/11 11:41:03;;;;;;;25.58;10.68;;;13.70;91.50;;;;;;4994713;28;20118;-71
2020/12/11 11:43:48;;;;;;;15.23;5.00;;;14.10;91.70;;;;;;4995170;28;20125;-71
2020/12/11 11:46:13;;;;;;;15.57;4.88;;;13.70;91.20;;;;;;4995041;28;20042;-71
2020/12/11 11:48:42;;;;;;;14.80;3.92;;;14.10;91.50;;;;;;4994434;28;20046;-71
2020/12/11 11:51:21;;;;;;;17.13;6.22;;;14.20;91.40;;;;;;4994871;28;20041;-71
2020/12/11 11:53:47;;;;;;;18.63;5.70;;;14.70;91.40;;;;;;4994438;28;20410;-71
2020/12/11 11:56:19;;;;;;;14.88;3.58;;;14.40;91.30;;;;;;5009286;28;20032;-71
2020/12/11 11:58:46;;;;;;;16.52;3.22;;;14.70;91.50;;;;;;5012830;28;20034;-71
2020/12/11 12:01:13;;;;;;;15.05;3.53;;;14.50;90.90;;;;;;5012745;28;20041;-72
2020/12/11 12:03:39;;;;;;;13.48;2.85;;;15.00;91.20;;;;;;5004641;28;20493;-71
2020/12/11 12:06:06;;;;;;;19.50;3.40;;;15.10;91.10;;;;;;5010017;28;20060;-72
2020/12/11 12:08:31;;;;;;;15.50;3.42;;;15.00;90.90;;;;;;5012518;28;20543;-72
2020/12/11 12:10:57;;;;;;;16.10;3.00;;;15.20;90.90;;;;;;5012734;28;20025;-72
2020/12/11 12:13:23;;;;;;;17.35;3.20;;;15.00;90.80;;;;;;5013193;28;20045;-72
2020/12/11 12:15:50;;;;;;;15.15;3.45;;;15.50;90.50;;;;;;5013281;28;20081;-71
2020/12/11 12:18:16;;;;;;;13.85;3.50;;;15.90;90.70;;;;;;5013293;28;20121;-71
2020/12/11 12:28:40;;;;;;;17.05;5.20;;;15.90;89.60;;;;;;5014366;28;20041;-71
2020/12/11 12:31:07;;;;;;;19.70;3.78;;;15.90;88.60;;;;;;5015777;28;20370;-71
2020/12/11 12:43:58;;;;;;;17.38;4.32;;;16.40;89.40;;;;;;5012952;28;20037;-72
2020/12/11 12:46:24;;;;;;;19.30;3.40;;;15.90;88.50;;;;;;5016751;28;20056;-72
2020/12/11 12:48:50;;;;;;;21.60;4.50;;;16.00;87.80;;;;;;5016537;28;20538;-72
2020/12/11 12:51:16;;;;;;;15.77;3.78;;;15.70;87.10;;;;;;5016790;28;20034;-72
2020/12/11 12:53:42;;;;;;;16.45;3.65;;;15.80;86.60;;;;;;5012908;28;20559;-71
2020/12/11 12:58:59;;;;;;;16.23;3.33;;;15.70;85.70;;;;;;5016217;28;20045;-71
2020/12/11 13:01:46;;;;;;;18.25;3.40;;;16.30;86.50;;;;;;5014424;28;20061;-72
2020/12/11 13:04:20;;;;;;;15.18;2.28;;;15.40;85.20;;;;;;5011117;28;20497;-71
2020/12/11 13:06:47;;;;;;;15.97;2.77;;;15.90;85.60;;;;;;4995812;28;20520;-72
2020/12/11 13:09:16;;;;;;;19.67;2.75;;;15.90;86.60;;;;;;5000505;28;20061;-72
2020/12/11 13:11:42;;;;;;;17.90;3.88;;;16.20;86.90;;;;;;5007274;28;20544;-71
2020/12/11 13:14:07;;;;;;;15.25;2.88;;;15.70;86.40;;;;;;4996012;28;20066;-72
2020/12/11 13:16:33;;;;;;;23.42;5.90;;;16.00;86.80;;;;;;4995593;28;20402;-71
2020/12/11 13:18:59;;;;;;;16.23;3.78;;;16.30;86.30;;;;;;5006838;28;20197;-71
2020/12/11 13:21:32;;;;;;;36.67;15.43;;;16.20;86.50;;;;;;4995205;28;20042;-71
2020/12/11 13:26:52;;;;;;;15.05;3.38;;;15.80;85.60;;;;;;5011047;28;20049;-71
2020/12/11 13:29:18;;;;;;;16.40;3.75;;;16.40;85.90;;;;;;5015264;28;20045;-71
2020/12/11 13:31:44;;;;;;;12.48;3.35;;;16.00;86.20;;;;;;5014694;28;20034;-71
2020/12/11 13:34:10;;;;;;;12.85;3.33;;;15.80;85.60;;;;;;4994447;28;20038;-71
2020/12/11 13:36:36;;;;;;;17.42;3.50;;;16.00;85.60;;;;;;4994558;28;20116;-71